createdAt,value
2023-04-18T00:02:06.995Z,30.46
2023-04-18T00:04:35.867Z,29.24
2023-04-18T00:07:04.413Z,29.96
2023-04-18T00:09:32.850Z,32.20
2023-04-18T00:12:02.102Z,30.54
2023-04-18T00:14:30.712Z,31.36
2023-04-18T00:16:59.194Z,31.26
2023-04-18T00:19:27.815Z,32.15
2023-04-18T00:21:58.040Z,31.73
2023-04-18T00:24:26.503Z,30.22
2023-04-18T00:26:55.042Z,29.93
2023-04-18T00:29:23.431Z,27.91
2023-04-18T00:31:51.824Z,27.94
2023-04-18T00:34:20.398Z,28.55
2023-04-18T00:36:48.739Z,29.72
2023-04-18T00:39:17.143Z,29.13
2023-04-18T00:41:45.521Z,29.71
2023-04-18T00:44:14.149Z,28.72
2023-04-18T00:46:42.909Z,28.82
2023-04-18T00:49:11.808Z,26.66
2023-04-18T00:51:40.797Z,29.41
2023-04-18T00:54:11.254Z,29.49
2023-04-18T00:56:39.819Z,29.36
2023-04-18T00:59:09.875Z,30.25
2023-04-18T01:01:40.289Z,29.52
2023-04-18T01:04:09.377Z,30.45
2023-04-18T01:06:38.076Z,32.41
2023-04-18T01:09:06.660Z,29.03
2023-04-18T01:11:35.998Z,28.77
2023-04-18T01:14:06.509Z,31.13
2023-04-18T01:16:35.024Z,30.99
2023-04-18T01:19:04.862Z,31.00
2023-04-18T01:21:37.326Z,31.93
2023-04-18T01:24:12.278Z,30.93
2023-04-18T01:26:43.641Z,29.11
2023-04-18T01:29:12.223Z,31.86
2023-04-18T01:31:41.148Z,30.21
2023-04-18T01:34:09.786Z,32.47
2023-04-18T01:36:39.063Z,31.56
2023-04-18T01:39:07.566Z,32.11
2023-04-18T01:41:36.584Z,33.06
2023-04-18T01:44:05.352Z,30.85
2023-04-18T01:46:34.193Z,29.90
2023-04-18T01:49:02.732Z,29.55
2023-04-18T01:51:31.602Z,28.65
2023-04-18T01:54:00.157Z,30.10
2023-04-18T01:56:28.556Z,31.61
2023-04-18T01:58:57.188Z,30.76
2023-04-18T02:01:25.712Z,31.70
2023-04-18T02:03:54.514Z,30.63
2023-04-18T02:06:23.114Z,31.02
2023-04-18T02:08:51.521Z,30.74
2023-04-18T02:11:19.998Z,31.32
2023-04-18T02:13:48.628Z,30.49
2023-04-18T02:16:17.068Z,30.55
2023-04-18T02:18:45.820Z,32.22
2023-04-18T02:21:14.205Z,30.38
2023-04-18T02:23:42.693Z,33.60
2023-04-18T02:26:11.305Z,32.06
2023-04-18T02:28:39.756Z,31.22
2023-04-18T02:31:14.330Z,31.64
2023-04-18T02:33:43.869Z,30.80
2023-04-18T02:36:12.989Z,29.60
2023-04-18T02:38:41.477Z,31.73
2023-04-18T02:41:14.898Z,30.30
2023-04-18T02:43:43.597Z,30.32
2023-04-18T02:46:12.433Z,32.63
2023-04-18T02:48:41.049Z,32.18
2023-04-18T02:51:09.710Z,31.46
2023-04-18T02:53:38.174Z,32.46
2023-04-18T02:56:07.208Z,32.08
2023-04-18T02:58:36.439Z,31.53
2023-04-18T03:01:05.035Z,31.18
2023-04-18T03:03:33.612Z,31.08
2023-04-18T03:06:02.088Z,30.79
2023-04-18T03:08:30.628Z,29.48
2023-04-18T03:10:59.138Z,31.56
2023-04-18T03:13:27.657Z,31.43
2023-04-18T03:15:56.358Z,31.41
2023-04-18T03:18:25.001Z,30.99
2023-04-18T03:20:53.408Z,31.59
2023-04-18T03:23:22.029Z,31.39
2023-04-18T03:25:50.544Z,32.49
2023-04-18T03:28:19.045Z,32.33
2023-04-18T03:30:47.673Z,30.95
2023-04-18T03:33:17.166Z,30.88
2023-04-18T03:35:45.678Z,31.95
2023-04-18T03:38:14.141Z,30.20
2023-04-18T03:40:44.462Z,31.02
2023-04-18T03:43:12.855Z,30.93
2023-04-18T03:45:41.244Z,30.30
2023-04-18T03:48:09.734Z,30.23
2023-04-18T03:50:38.225Z,32.97
2023-04-18T03:53:06.745Z,31.35
2023-04-18T03:55:35.497Z,29.09
2023-04-18T03:58:04.087Z,30.01
2023-04-18T04:00:32.522Z,33.05
2023-04-18T04:03:01.824Z,34.68
2023-04-18T04:05:30.716Z,33.00
2023-04-18T04:07:59.275Z,35.34
2023-04-18T04:10:27.748Z,34.14
2023-04-18T04:12:56.399Z,34.44
2023-04-18T04:15:24.906Z,34.25
2023-04-18T04:17:53.673Z,34.03
2023-04-18T04:20:25.751Z,31.79
2023-04-18T04:22:55.209Z,32.81
2023-04-18T04:25:28.441Z,31.39
2023-04-18T04:27:56.933Z,31.92
2023-04-18T04:30:25.419Z,32.59
2023-04-18T04:32:55.059Z,31.41
2023-04-18T04:35:23.612Z,31.08
2023-04-18T04:37:53.152Z,32.20
2023-04-18T04:40:23.018Z,34.68
2023-04-18T04:42:54.155Z,32.16
2023-04-18T04:45:24.076Z,32.42
2023-04-18T04:47:52.713Z,30.77
2023-04-18T04:50:21.268Z,34.39
2023-04-18T04:52:49.883Z,30.79
2023-04-18T04:55:18.998Z,32.00
2023-04-18T04:57:47.720Z,31.75
2023-04-18T05:00:20.801Z,33.33
2023-04-18T05:02:49.766Z,32.86
2023-04-18T05:05:18.796Z,36.01
2023-04-18T05:07:47.393Z,32.03
2023-04-18T05:10:15.877Z,35.63
2023-04-18T05:12:44.589Z,32.71
2023-04-18T05:15:15.225Z,35.11
2023-04-18T05:17:43.741Z,34.41
2023-04-18T05:20:13.348Z,31.83
2023-04-18T05:22:41.814Z,34.06
2023-04-18T05:25:10.357Z,33.48
2023-04-18T05:27:38.945Z,32.33
2023-04-18T05:30:07.984Z,32.07
2023-04-18T05:32:39.014Z,33.83
2023-04-18T05:35:08.125Z,32.43
2023-04-18T05:37:36.795Z,32.46
2023-04-18T05:40:06.755Z,34.34
2023-04-18T05:42:35.239Z,33.33
2023-04-18T05:45:03.933Z,31.98
2023-04-18T05:47:33.474Z,32.06
2023-04-18T05:50:02.015Z,32.97
2023-04-18T05:52:31.191Z,32.30
2023-04-18T05:54:59.683Z,32.73
2023-04-18T05:57:28.135Z,30.62
2023-04-18T05:59:56.608Z,32.65
2023-04-18T06:02:25.745Z,32.72
2023-04-18T06:04:54.609Z,34.11
2023-04-18T06:07:25.337Z,32.07
2023-04-18T06:09:54.094Z,34.29
2023-04-18T06:12:22.568Z,32.57
2023-04-18T06:14:51.171Z,31.98
2023-04-18T06:17:19.702Z,31.86
2023-04-18T06:19:48.134Z,32.35
2023-04-18T06:22:16.678Z,33.20
2023-04-18T06:24:45.133Z,32.14
2023-04-18T06:27:27.999Z,29.64
2023-04-18T06:29:59.198Z,29.38
2023-04-18T06:32:28.085Z,31.26
2023-04-18T06:34:56.652Z,32.14
2023-04-18T06:37:25.212Z,32.18
2023-04-18T06:39:53.750Z,32.77
2023-04-18T06:42:22.773Z,33.75
2023-04-18T06:44:51.449Z,31.85
2023-04-18T06:47:20.039Z,33.49
2023-04-18T06:49:48.626Z,33.60
2023-04-18T06:52:18.181Z,33.11
2023-04-18T06:54:46.653Z,34.24
2023-04-18T06:57:15.889Z,31.15
2023-04-18T06:59:44.376Z,32.66
2023-04-18T07:02:13.174Z,34.68
2023-04-18T07:04:41.673Z,32.11
2023-04-18T07:07:10.170Z,31.31
2023-04-18T07:09:38.682Z,30.28
2023-04-18T07:12:07.974Z,32.11
2023-04-18T07:14:36.360Z,34.22
2023-04-18T07:17:05.146Z,31.67
2023-04-18T07:19:33.909Z,31.78
2023-04-18T07:22:02.401Z,30.99
2023-04-18T07:24:30.960Z,33.51
2023-04-18T07:26:59.449Z,32.51
2023-04-18T07:29:28.009Z,33.45
2023-04-18T07:31:56.503Z,33.61
2023-04-18T07:34:27.298Z,33.36
2023-04-18T07:36:57.270Z,32.28
2023-04-18T07:39:25.768Z,30.67
2023-04-18T07:41:54.474Z,32.49
2023-04-18T07:44:25.177Z,33.38
2023-04-18T07:46:53.563Z,32.03
2023-04-18T07:49:21.968Z,30.33
2023-04-18T07:51:50.449Z,31.58
2023-04-18T07:54:18.972Z,30.69
2023-04-18T07:56:47.430Z,29.71
2023-04-18T07:59:16.082Z,31.39
2023-04-18T08:01:44.716Z,29.07
2023-04-18T08:04:14.642Z,29.71
2023-04-18T08:06:43.425Z,30.47
2023-04-18T08:09:12.457Z,33.15
2023-04-18T08:11:42.592Z,32.36
2023-04-18T08:14:11.540Z,31.11
2023-04-18T08:16:40.211Z,31.54
2023-04-18T08:19:08.732Z,34.22
2023-04-18T08:21:37.247Z,30.21
2023-04-18T08:24:06.146Z,30.46
2023-04-18T08:26:34.660Z,28.91
2023-04-18T08:29:03.299Z,31.63
2023-04-18T08:31:31.804Z,32.02
2023-04-18T08:34:00.795Z,33.23
2023-04-18T08:36:31.515Z,32.06
2023-04-18T08:39:00.015Z,31.42
2023-04-18T08:41:34.169Z,31.24
2023-04-18T08:44:02.789Z,30.84
2023-04-18T08:46:37.228Z,30.47
2023-04-18T08:49:06.348Z,31.11
2023-04-18T08:51:36.392Z,30.00
2023-04-18T08:54:06.326Z,30.08
2023-04-18T08:56:37.426Z,29.38
2023-04-18T08:59:05.921Z,31.95
2023-04-18T09:02:09.006Z,31.00
2023-04-18T09:04:37.714Z,31.17
2023-04-18T09:07:11.000Z,31.83
2023-04-18T09:09:44.195Z,31.34
2023-04-18T09:12:26.823Z,31.61
2023-04-18T09:15:00.394Z,29.33
2023-04-18T09:17:38.074Z,28.36
2023-04-18T09:20:09.921Z,31.59
2023-04-18T09:22:48.616Z,29.57
2023-04-18T09:25:44.971Z,28.36
2023-04-18T09:28:31.862Z,28.13
2023-04-18T09:31:11.898Z,28.54
2023-04-18T09:33:52.767Z,28.35
2023-04-18T09:36:22.410Z,28.61
2023-04-18T09:38:55.326Z,30.02
2023-04-18T09:41:24.996Z,28.43
2023-04-18T09:44:12.321Z,27.68
2023-04-18T09:46:46.085Z,28.67
2023-04-18T09:49:16.895Z,29.90
2023-04-18T09:51:46.282Z,29.08
2023-04-18T09:54:16.595Z,28.58
2023-04-18T09:56:47.465Z,27.83
2023-04-18T09:59:23.966Z,27.82
2023-04-18T10:01:53.121Z,27.98
2023-04-18T10:04:22.272Z,28.67
2023-04-18T10:06:51.202Z,27.93
2023-04-18T10:09:22.060Z,27.86
2023-04-18T10:11:50.504Z,28.46
2023-04-18T10:14:19.771Z,27.72
2023-04-18T10:16:49.272Z,27.21
2023-04-18T10:19:27.376Z,27.28
2023-04-18T10:21:57.801Z,27.73
2023-04-18T10:24:45.240Z,28.90
2023-04-18T10:27:13.855Z,29.11
2023-04-18T10:29:54.338Z,27.46
2023-04-18T10:32:23.494Z,27.67
2023-04-18T10:34:55.406Z,27.05
2023-04-18T10:37:26.704Z,28.07
2023-04-18T10:40:08.019Z,29.05
2023-04-18T10:42:59.868Z,28.55
2023-04-18T10:45:30.953Z,27.64
2023-04-18T10:48:22.992Z,26.99
2023-04-18T10:51:26.840Z,26.25
2023-04-18T10:53:59.486Z,27.19
2023-04-18T10:56:29.100Z,27.28
2023-04-18T10:59:01.816Z,28.16
2023-04-18T11:01:33.052Z,27.22
2023-04-18T11:04:01.982Z,30.36
2023-04-18T11:06:31.332Z,27.16
2023-04-18T11:09:13.618Z,26.33
2023-04-18T11:11:43.369Z,30.57
2023-04-18T11:14:12.002Z,28.82
2023-04-18T11:16:40.833Z,27.71
2023-04-18T11:19:23.236Z,29.04
2023-04-18T11:21:51.747Z,30.63
2023-04-18T11:24:22.758Z,29.09
2023-04-18T11:26:55.934Z,28.44
2023-04-18T11:29:24.712Z,28.00
2023-04-18T11:31:56.596Z,27.87
2023-04-18T11:34:31.369Z,29.02
2023-04-18T11:37:00.317Z,27.75
2023-04-18T11:39:28.803Z,29.29
2023-04-18T11:41:59.202Z,28.71
2023-04-18T11:44:27.771Z,28.47
2023-04-18T11:46:56.208Z,28.96
2023-04-18T11:49:33.763Z,27.91
2023-04-18T11:52:11.265Z,29.12
2023-04-18T11:54:44.933Z,29.37
2023-04-18T11:57:21.016Z,28.16
2023-04-18T11:59:57.773Z,30.57
2023-04-18T12:02:28.310Z,28.66
2023-04-18T12:05:00.355Z,28.75
2023-04-18T12:07:36.508Z,28.56
2023-04-18T12:10:07.460Z,28.39
2023-04-18T12:12:36.358Z,27.00
2023-04-18T12:15:13.815Z,27.83
2023-04-18T12:17:48.619Z,28.11
2023-04-18T12:20:18.470Z,26.37
2023-04-18T12:22:51.467Z,29.54
2023-04-18T12:25:27.364Z,29.67
2023-04-18T12:28:01.125Z,27.46
2023-04-18T12:30:31.833Z,26.15
2023-04-18T12:33:04.450Z,28.04
2023-04-18T12:35:32.980Z,28.46
2023-04-18T12:38:02.869Z,26.98
2023-04-18T12:40:31.404Z,29.35
2023-04-18T12:43:01.470Z,27.44
2023-04-18T12:45:31.667Z,29.93
2023-04-18T12:48:00.324Z,30.34
2023-04-18T12:50:28.914Z,28.30
2023-04-18T12:52:59.562Z,27.92
2023-04-18T12:55:28.912Z,27.83
2023-04-18T12:57:58.201Z,28.24
2023-04-18T13:00:29.626Z,26.84
2023-04-18T13:02:59.208Z,25.57
2023-04-18T13:05:32.460Z,27.48
2023-04-18T13:10:33.302Z,28.97
2023-04-18T13:13:01.771Z,27.70
2023-04-18T13:15:30.254Z,26.99
2023-04-18T13:18:04.694Z,28.01
2023-04-18T13:20:34.363Z,30.01
2023-04-18T13:23:02.915Z,27.38
2023-04-18T13:25:31.593Z,30.38
2023-04-18T13:28:00.769Z,30.85
2023-04-18T13:30:29.676Z,28.45
2023-04-18T13:32:58.416Z,29.32
2023-04-18T13:35:26.941Z,28.77
2023-04-18T13:37:55.990Z,27.61
2023-04-18T13:40:25.220Z,30.15
2023-04-18T13:42:53.891Z,29.40
2023-04-18T13:45:22.356Z,29.66
2023-04-18T13:47:50.922Z,30.21
2023-04-18T13:50:20.292Z,28.37
2023-04-18T13:52:49.397Z,29.47
2023-04-18T13:55:18.698Z,28.94
2023-04-18T13:57:48.212Z,27.22
2023-04-18T14:00:17.461Z,27.48
2023-04-18T14:02:46.050Z,30.41
2023-04-18T14:05:14.762Z,29.35
2023-04-18T14:07:43.547Z,31.85
2023-04-18T14:10:12.029Z,30.96
2023-04-18T14:12:40.547Z,28.21
2023-04-18T14:15:09.632Z,28.19
2023-04-18T14:17:38.210Z,27.71
2023-04-18T14:20:07.761Z,31.48
2023-04-18T14:22:36.337Z,30.19
2023-04-18T14:25:05.407Z,29.97
2023-04-18T14:27:34.160Z,31.25
2023-04-18T14:30:03.118Z,30.05
2023-04-18T14:32:31.626Z,28.38
2023-04-18T14:35:00.265Z,27.70
2023-04-18T14:37:28.765Z,29.64
2023-04-18T14:39:57.286Z,28.59
2023-04-18T14:42:25.746Z,28.91
2023-04-18T14:44:54.484Z,29.18
2023-04-18T14:47:24.283Z,28.13
2023-04-18T14:49:52.843Z,26.98
2023-04-18T14:52:21.249Z,28.55
2023-04-18T14:54:49.650Z,27.80
2023-04-18T14:57:18.445Z,29.17
2023-04-18T14:59:46.869Z,26.89
2023-04-18T15:02:15.664Z,27.16
2023-04-18T15:04:44.341Z,25.88
2023-04-18T15:07:12.874Z,29.31
2023-04-18T15:09:41.352Z,27.46
2023-04-18T15:12:09.894Z,27.91
2023-04-18T15:14:38.431Z,27.21
2023-04-18T15:17:06.873Z,29.94
2023-04-18T15:19:35.415Z,29.02
2023-04-18T15:22:03.841Z,26.83
2023-04-18T15:24:32.339Z,28.53
2023-04-18T15:27:01.440Z,27.05
2023-04-18T15:29:29.929Z,29.60
2023-04-18T15:31:58.374Z,27.72
2023-04-18T15:34:26.946Z,27.33
2023-04-18T15:36:55.526Z,25.91
2023-04-18T15:39:24.143Z,26.82
2023-04-18T15:41:56.466Z,29.11
2023-04-18T15:44:25.172Z,30.31
2023-04-18T15:46:53.591Z,29.70
2023-04-18T15:49:21.980Z,27.74
2023-04-18T15:51:50.416Z,27.47
2023-04-18T15:54:18.890Z,28.12
2023-04-18T15:56:47.259Z,27.26
2023-04-18T15:59:15.681Z,27.01
2023-04-18T16:01:46.015Z,28.97
2023-04-18T16:04:15.338Z,30.48
2023-04-18T16:06:44.009Z,30.45
2023-04-18T16:09:12.454Z,29.33
2023-04-18T16:11:40.871Z,29.78
2023-04-18T16:14:09.404Z,27.49
2023-04-18T16:16:37.785Z,28.05
2023-04-18T16:19:06.358Z,28.57
2023-04-18T16:21:34.962Z,28.07
2023-04-18T16:24:03.572Z,26.70
2023-04-18T16:26:32.138Z,29.58
2023-04-18T16:29:00.667Z,28.41
2023-04-18T16:31:29.234Z,29.46
2023-04-18T16:33:57.780Z,28.23
2023-04-18T16:36:26.513Z,26.48
2023-04-18T16:38:54.903Z,26.15
2023-04-18T16:41:23.293Z,26.88
2023-04-18T16:43:51.779Z,26.24
2023-04-18T16:46:20.238Z,26.01
2023-04-18T16:48:51.056Z,26.46
2023-04-18T16:51:21.041Z,28.90
2023-04-18T16:53:49.819Z,26.98
2023-04-18T16:56:18.232Z,27.91
2023-04-18T16:58:46.851Z,25.77
2023-04-18T17:01:15.575Z,26.31
2023-04-18T17:03:44.496Z,27.60
2023-04-18T17:06:13.099Z,27.10
2023-04-18T17:08:41.495Z,29.26
2023-04-18T17:11:09.936Z,28.62
2023-04-18T17:13:38.453Z,26.21
2023-04-18T17:16:07.397Z,25.71
2023-04-18T17:18:35.930Z,28.54
2023-04-18T17:21:05.288Z,26.33
2023-04-18T17:23:33.820Z,28.73
2023-04-18T17:26:02.251Z,27.96
2023-04-18T17:28:30.738Z,28.95
2023-04-18T17:31:01.465Z,28.95
2023-04-18T17:33:30.562Z,26.99
2023-04-18T17:35:59.109Z,27.55
2023-04-18T17:38:27.606Z,29.56
2023-04-18T17:41:00.371Z,27.27
2023-04-18T17:43:29.191Z,29.05
2023-04-18T17:45:59.611Z,26.74
2023-04-18T17:48:28.063Z,25.97
2023-04-18T17:50:56.650Z,28.88
2023-04-18T17:53:25.198Z,28.08
2023-04-18T17:55:55.240Z,27.62
2023-04-18T17:58:23.654Z,29.05
2023-04-18T18:00:53.519Z,28.17
2023-04-18T18:03:22.379Z,27.07
2023-04-18T18:05:51.906Z,27.78
2023-04-18T18:08:21.641Z,27.49
2023-04-18T18:10:50.226Z,26.87
2023-04-18T18:13:18.735Z,29.29
2023-04-18T18:15:47.308Z,27.69
2023-04-18T18:18:15.871Z,26.58
2023-04-18T18:20:44.454Z,28.97
2023-04-18T18:23:12.833Z,28.42
2023-04-18T18:25:41.578Z,29.50
2023-04-18T18:28:10.153Z,30.79
2023-04-18T18:30:38.765Z,30.35
2023-04-18T18:33:07.273Z,29.51
2023-04-18T18:35:36.444Z,29.42
2023-04-18T18:38:04.940Z,28.20
2023-04-18T18:40:33.432Z,29.50
2023-04-18T18:43:01.976Z,28.78
2023-04-18T18:45:30.427Z,28.88
2023-04-18T18:47:58.954Z,30.46
2023-04-18T18:50:27.624Z,28.90
2023-04-18T18:52:56.119Z,29.29
2023-04-18T18:55:24.598Z,31.38
2023-04-18T18:57:54.069Z,28.23
2023-04-18T19:00:22.696Z,28.15
2023-04-18T19:02:51.371Z,26.98
2023-04-18T19:05:19.989Z,29.43
2023-04-18T19:07:49.179Z,31.30
2023-04-18T19:10:17.796Z,28.76
2023-04-18T19:12:46.320Z,27.07
2023-04-18T19:15:14.893Z,31.07
2023-04-18T19:17:43.407Z,30.08
2023-04-18T19:20:11.868Z,28.92
2023-04-18T19:22:40.588Z,29.86
2023-04-18T19:25:09.678Z,28.80
2023-04-18T19:27:38.194Z,29.47
2023-04-18T19:30:07.434Z,30.70
2023-04-18T19:32:35.987Z,30.04
2023-04-18T19:35:05.757Z,31.22
2023-04-18T19:37:34.179Z,29.48
2023-04-18T19:40:02.801Z,27.21
2023-04-18T19:42:31.693Z,29.97
2023-04-18T19:45:00.468Z,30.27
2023-04-18T19:47:32.183Z,29.90
2023-04-18T19:50:01.400Z,31.00
2023-04-18T19:52:29.796Z,30.32
2023-04-18T19:54:58.207Z,29.61
2023-04-18T19:57:28.818Z,29.58
2023-04-18T19:59:57.279Z,27.60
2023-04-18T20:02:25.954Z,28.35
2023-04-18T20:04:54.661Z,29.42
2023-04-18T20:07:24.217Z,28.40
2023-04-18T20:09:54.928Z,28.30
2023-04-18T20:12:23.676Z,29.36
2023-04-18T20:14:52.501Z,27.86
2023-04-18T20:17:21.241Z,31.02
2023-04-18T20:19:51.051Z,32.06
2023-04-18T20:22:19.851Z,30.05
2023-04-18T20:24:49.134Z,28.11
2023-04-18T20:27:20.440Z,29.41
2023-04-18T20:29:49.099Z,30.09
2023-04-18T20:32:17.608Z,29.34
2023-04-18T20:34:46.702Z,28.68
2023-04-18T20:37:18.679Z,28.50
2023-04-18T20:39:47.556Z,27.31
2023-04-18T20:42:17.540Z,28.91
2023-04-18T20:44:46.722Z,30.26
2023-04-18T20:47:15.948Z,30.18
2023-04-18T20:49:44.595Z,28.55
2023-04-18T20:52:14.524Z,31.17
2023-04-18T20:54:43.074Z,29.26
2023-04-18T20:57:11.618Z,29.20
2023-04-18T20:59:40.258Z,31.27
2023-04-18T21:02:08.978Z,30.97
2023-04-18T21:04:37.698Z,30.05
2023-04-18T21:07:06.361Z,29.97
2023-04-18T21:09:36.723Z,28.94
2023-04-18T21:12:05.673Z,28.92
2023-04-18T21:14:34.166Z,29.66
2023-04-18T21:17:02.781Z,28.12
2023-04-18T21:19:31.383Z,30.18
2023-04-18T21:21:59.794Z,30.55
2023-04-18T21:24:28.247Z,29.47
2023-04-18T21:26:57.728Z,30.51
2023-04-18T21:29:26.190Z,29.27
2023-04-18T21:31:54.839Z,29.75
2023-04-18T21:34:23.393Z,28.97
2023-04-18T21:36:51.898Z,29.33
2023-04-18T21:39:20.335Z,29.98
2023-04-18T21:41:48.763Z,31.67
2023-04-18T21:44:18.868Z,30.81
2023-04-18T21:46:47.276Z,32.04
2023-04-18T21:49:15.934Z,30.28
2023-04-18T21:51:44.981Z,31.61
2023-04-18T21:54:13.861Z,32.49
2023-04-18T21:56:43.095Z,29.95
2023-04-18T21:59:11.582Z,32.33
2023-04-18T22:01:40.061Z,29.95
2023-04-18T22:04:09.017Z,30.99
2023-04-18T22:06:37.820Z,33.22
2023-04-18T22:09:06.406Z,32.39
2023-04-18T22:11:34.792Z,31.61
2023-04-18T22:14:03.318Z,30.60
2023-04-18T22:16:33.319Z,30.73
2023-04-18T22:19:01.898Z,32.21
2023-04-18T22:21:31.310Z,30.15
2023-04-18T22:23:59.748Z,33.62
2023-04-18T22:26:28.313Z,31.00
2023-04-18T22:28:56.768Z,32.52
2023-04-18T22:31:25.428Z,31.32
2023-04-18T22:33:54.040Z,29.60
2023-04-18T22:36:22.607Z,29.86
2023-04-18T22:38:51.029Z,29.72
2023-04-18T22:41:19.559Z,30.02
2023-04-18T22:43:49.073Z,30.09
2023-04-18T22:46:17.530Z,29.45
2023-04-18T22:48:46.231Z,29.79
2023-04-18T22:51:14.805Z,30.85
2023-04-18T22:53:43.545Z,29.58
2023-04-18T22:56:12.001Z,29.82
2023-04-18T22:58:40.470Z,30.86
2023-04-18T23:01:08.865Z,31.24
2023-04-18T23:03:37.359Z,31.70
2023-04-18T23:06:08.802Z,30.94
2023-04-18T23:08:37.296Z,30.80
2023-04-18T23:11:05.914Z,30.68
2023-04-18T23:13:34.417Z,30.30
2023-04-18T23:16:02.872Z,30.16
2023-04-18T23:18:31.379Z,30.33
2023-04-18T23:21:00.260Z,30.74
2023-04-18T23:23:28.764Z,30.84
2023-04-18T23:25:57.497Z,31.75
2023-04-18T23:28:26.209Z,30.27
2023-04-18T23:30:54.587Z,32.05
2023-04-18T23:33:23.004Z,30.56
2023-04-18T23:35:51.462Z,31.42
2023-04-18T23:38:20.020Z,29.87
2023-04-18T23:40:48.493Z,32.53
2023-04-18T23:43:16.934Z,31.13
2023-04-18T23:45:45.474Z,30.60
2023-04-18T23:48:13.946Z,32.31
2023-04-18T23:50:47.313Z,30.86
2023-04-18T23:53:19.539Z,30.26
2023-04-18T23:55:50.593Z,32.45
2023-04-18T23:58:19.429Z,30.84
